sensor_id;sensor_type;location;lat;lon;timestamp;P1;durP1;ratioP1;P2;durP2;ratioP2
28760;SDS011;15917;50.014;8.352;2023-02-12T00:01:29;39.67;;;19.05;;
28760;SDS011;15917;50.014;8.352;2023-02-12T00:03:55;39.33;;;18.88;;
28760;SDS011;15917;50.014;8.352;2023-02-12T00:06:21;43.42;;;19.65;;
28760;SDS011;15917;50.014;8.352;2023-02-12T00:08:48;35.35;;;17.75;;
28760;SDS011;15917;50.014;8.352;2023-02-12T00:13:42;43.75;;;18.85;;
28760;SDS011;15917;50.014;8.352;2023-02-12T00:16:09;40.97;;;18.77;;
28760;SDS011;15917;50.014;8.352;2023-02-12T00:18:37;41.13;;;19.00;;
28760;SDS011;15917;50.014;8.352;2023-02-12T00:21:03;51.95;;;20.70;;
28760;SDS011;15917;50.014;8.352;2023-02-12T00:23:30;40.95;;;19.35;;
28760;SDS011;15917;50.014;8.352;2023-02-12T00:25:56;45.63;;;19.70;;
28760;SDS011;15917;50.014;8.352;2023-02-12T00:28:21;56.15;;;21.23;;
28760;SDS011;15917;50.014;8.352;2023-02-12T00:30:47;55.80;;;24.08;;
28760;SDS011;15917;50.014;8.352;2023-02-12T00:33:13;56.88;;;23.75;;
28760;SDS011;15917;50.014;8.352;2023-02-12T00:35:38;52.08;;;22.55;;
28760;SDS011;15917;50.014;8.352;2023-02-12T00:38:04;53.58;;;23.10;;
28760;SDS011;15917;50.014;8.352;2023-02-12T00:40:29;47.78;;;20.65;;
28760;SDS011;15917;50.014;8.352;2023-02-12T00:42:55;53.30;;;22.02;;
28760;SDS011;15917;50.014;8.352;2023-02-12T00:45:22;54.78;;;23.65;;
28760;SDS011;15917;50.014;8.352;2023-02-12T00:47:47;50.63;;;22.65;;
28760;SDS011;15917;50.014;8.352;2023-02-12T00:50:13;46.72;;;22.38;;
28760;SDS011;15917;50.014;8.352;2023-02-12T00:52:39;53.13;;;22.98;;
28760;SDS011;15917;50.014;8.352;2023-02-12T00:55:05;49.35;;;22.90;;
28760;SDS011;15917;50.014;8.352;2023-02-12T00:57:31;54.85;;;21.83;;
28760;SDS011;15917;50.014;8.352;2023-02-12T00:59:57;47.72;;;21.02;;
28760;SDS011;15917;50.014;8.352;2023-02-12T01:02:23;46.75;;;19.63;;
28760;SDS011;15917;50.014;8.352;2023-02-12T01:04:49;48.40;;;21.67;;
28760;SDS011;15917;50.014;8.352;2023-02-12T01:07:15;50.83;;;22.40;;
28760;SDS011;15917;50.014;8.352;2023-02-12T01:09:41;51.63;;;20.73;;
28760;SDS011;15917;50.014;8.352;2023-02-12T01:12:06;44.17;;;21.17;;
28760;SDS011;15917;50.014;8.352;2023-02-12T01:14:32;46.40;;;22.20;;
28760;SDS011;15917;50.014;8.352;2023-02-12T01:16:58;44.45;;;20.75;;
28760;SDS011;15917;50.014;8.352;2023-02-12T01:19:23;46.83;;;19.13;;
28760;SDS011;15917;50.014;8.352;2023-02-12T01:21:49;44.97;;;20.15;;
28760;SDS011;15917;50.014;8.352;2023-02-12T01:24:15;39.20;;;19.05;;
28760;SDS011;15917;50.014;8.352;2023-02-12T01:26:40;53.00;;;19.17;;
28760;SDS011;15917;50.014;8.352;2023-02-12T01:29:06;46.72;;;19.23;;
28760;SDS011;15917;50.014;8.352;2023-02-12T01:31:34;45.40;;;20.50;;
28760;SDS011;15917;50.014;8.352;2023-02-12T01:34:02;53.33;;;22.40;;
28760;SDS011;15917;50.014;8.352;2023-02-12T01:36:30;47.63;;;20.85;;
28760;SDS011;15917;50.014;8.352;2023-02-12T01:38:56;49.60;;;21.55;;
28760;SDS011;15917;50.014;8.352;2023-02-12T01:41:24;48.85;;;21.58;;
28760;SDS011;15917;50.014;8.352;2023-02-12T01:46:48;50.92;;;20.20;;
28760;SDS011;15917;50.014;8.352;2023-02-12T01:54:45;58.63;;;23.65;;
28760;SDS011;15917;50.014;8.352;2023-02-12T01:57:13;51.30;;;22.65;;
28760;SDS011;15917;50.014;8.352;2023-02-12T01:59:41;52.72;;;22.85;;
28760;SDS011;15917;50.014;8.352;2023-02-12T02:02:09;57.60;;;21.45;;
28760;SDS011;15917;50.014;8.352;2023-02-12T02:04:39;58.13;;;23.95;;
28760;SDS011;15917;50.014;8.352;2023-02-12T02:07:09;57.67;;;23.83;;
28760;SDS011;15917;50.014;8.352;2023-02-12T02:09:36;53.35;;;23.65;;
28760;SDS011;15917;50.014;8.352;2023-02-12T02:12:03;59.58;;;23.55;;
28760;SDS011;15917;50.014;8.352;2023-02-12T02:14:48;50.55;;;20.85;;
28760;SDS011;15917;50.014;8.352;2023-02-12T02:23:04;52.03;;;20.88;;
28760;SDS011;15917;50.014;8.352;2023-02-12T02:25:56;60.80;;;22.08;;
28760;SDS011;15917;50.014;8.352;2023-02-12T02:31:35;57.70;;;24.27;;
28760;SDS011;15917;50.014;8.352;2023-02-12T02:37:14;63.95;;;25.17;;
28760;SDS011;15917;50.014;8.352;2023-02-12T02:40:01;53.55;;;23.73;;
28760;SDS011;15917;50.014;8.352;2023-02-12T02:50:43;54.13;;;22.75;;
28760;SDS011;15917;50.014;8.352;2023-02-12T02:53:15;51.13;;;22.92;;
28760;SDS011;15917;50.014;8.352;2023-02-12T02:55:49;58.83;;;23.90;;
28760;SDS011;15917;50.014;8.352;2023-02-12T02:58:22;62.53;;;25.58;;
28760;SDS011;15917;50.014;8.352;2023-02-12T03:08:56;56.38;;;25.02;;
28760;SDS011;15917;50.014;8.352;2023-02-12T03:11:29;66.05;;;26.13;;
28760;SDS011;15917;50.014;8.352;2023-02-12T03:16:41;59.75;;;25.13;;
28760;SDS011;15917;50.014;8.352;2023-02-12T03:19:14;65.78;;;27.52;;
28760;SDS011;15917;50.014;8.352;2023-02-12T03:21:43;62.58;;;26.27;;
28760;SDS011;15917;50.014;8.352;2023-02-12T03:26:59;64.72;;;28.30;;
28760;SDS011;15917;50.014;8.352;2023-02-12T03:29:34;59.25;;;26.60;;
28760;SDS011;15917;50.014;8.352;2023-02-12T03:32:15;63.75;;;26.35;;
28760;SDS011;15917;50.014;8.352;2023-02-12T03:38:00;57.58;;;25.17;;
28760;SDS011;15917;50.014;8.352;2023-02-12T03:40:39;64.60;;;26.45;;
28760;SDS011;15917;50.014;8.352;2023-02-12T03:45:49;58.08;;;24.23;;
28760;SDS011;15917;50.014;8.352;2023-02-12T03:48:33;63.15;;;26.58;;
28760;SDS011;15917;50.014;8.352;2023-02-12T03:51:11;66.03;;;26.08;;
28760;SDS011;15917;50.014;8.352;2023-02-12T03:53:46;55.97;;;24.60;;
28760;SDS011;15917;50.014;8.352;2023-02-12T03:56:14;60.75;;;25.85;;
28760;SDS011;15917;50.014;8.352;2023-02-12T03:58:44;61.13;;;26.65;;
28760;SDS011;15917;50.014;8.352;2023-02-12T04:01:11;65.05;;;25.98;;
28760;SDS011;15917;50.014;8.352;2023-02-12T04:03:37;63.30;;;27.48;;
28760;SDS011;15917;50.014;8.352;2023-02-12T04:06:03;67.10;;;25.83;;
28760;SDS011;15917;50.014;8.352;2023-02-12T04:08:29;58.58;;;24.67;;
28760;SDS011;15917;50.014;8.352;2023-02-12T04:13:27;64.32;;;26.20;;
28760;SDS011;15917;50.014;8.352;2023-02-12T04:16:21;58.17;;;24.65;;
28760;SDS011;15917;50.014;8.352;2023-02-12T04:18:50;63.03;;;26.77;;
28760;SDS011;15917;50.014;8.352;2023-02-12T04:24:14;55.20;;;25.35;;
28760;SDS011;15917;50.014;8.352;2023-02-12T04:32:17;62.22;;;24.48;;
28760;SDS011;15917;50.014;8.352;2023-02-12T04:37:46;62.80;;;25.38;;
28760;SDS011;15917;50.014;8.352;2023-02-12T04:40:16;63.08;;;25.42;;
28760;SDS011;15917;50.014;8.352;2023-02-12T04:42:43;66.65;;;26.00;;
28760;SDS011;15917;50.014;8.352;2023-02-12T04:45:11;61.33;;;26.65;;
28760;SDS011;15917;50.014;8.352;2023-02-12T04:47:40;60.25;;;26.27;;
28760;SDS011;15917;50.014;8.352;2023-02-12T04:50:06;61.08;;;25.25;;
28760;SDS011;15917;50.014;8.352;2023-02-12T04:52:32;57.85;;;26.13;;
28760;SDS011;15917;50.014;8.352;2023-02-12T04:54:58;60.30;;;25.33;;
28760;SDS011;15917;50.014;8.352;2023-02-12T04:57:23;63.70;;;26.23;;
28760;SDS011;15917;50.014;8.352;2023-02-12T04:59:49;59.20;;;24.60;;
28760;SDS011;15917;50.014;8.352;2023-02-12T05:02:14;61.25;;;24.00;;
28760;SDS011;15917;50.014;8.352;2023-02-12T05:04:40;64.75;;;25.58;;
28760;SDS011;15917;50.014;8.352;2023-02-12T05:07:05;62.45;;;25.52;;
28760;SDS011;15917;50.014;8.352;2023-02-12T05:09:31;71.05;;;26.42;;
28760;SDS011;15917;50.014;8.352;2023-02-12T05:11:57;57.72;;;25.25;;
28760;SDS011;15917;50.014;8.352;2023-02-12T05:14:23;64.47;;;26.75;;
28760;SDS011;15917;50.014;8.352;2023-02-12T05:16:49;60.38;;;25.38;;
28760;SDS011;15917;50.014;8.352;2023-02-12T05:19:15;60.47;;;26.20;;
28760;SDS011;15917;50.014;8.352;2023-02-12T05:21:41;69.05;;;25.70;;
28760;SDS011;15917;50.014;8.352;2023-02-12T05:24:07;58.75;;;24.67;;
28760;SDS011;15917;50.014;8.352;2023-02-12T05:26:32;65.82;;;26.27;;
28760;SDS011;15917;50.014;8.352;2023-02-12T05:28:59;61.40;;;26.05;;
28760;SDS011;15917;50.014;8.352;2023-02-12T05:31:25;62.42;;;24.60;;
28760;SDS011;15917;50.014;8.352;2023-02-12T05:33:50;63.33;;;25.45;;
28760;SDS011;15917;50.014;8.352;2023-02-12T05:36:17;54.38;;;24.23;;
28760;SDS011;15917;50.014;8.352;2023-02-12T05:38:45;57.65;;;25.02;;
28760;SDS011;15917;50.014;8.352;2023-02-12T05:41:12;57.30;;;25.35;;
28760;SDS011;15917;50.014;8.352;2023-02-12T05:43:42;63.80;;;24.92;;
28760;SDS011;15917;50.014;8.352;2023-02-12T05:46:08;59.83;;;25.42;;
28760;SDS011;15917;50.014;8.352;2023-02-12T05:48:35;56.72;;;24.48;;
28760;SDS011;15917;50.014;8.352;2023-02-12T05:51:06;58.97;;;26.17;;
28760;SDS011;15917;50.014;8.352;2023-02-12T05:53:38;83.57;;;27.70;;
28760;SDS011;15917;50.014;8.352;2023-02-12T05:56:15;66.47;;;26.23;;
28760;SDS011;15917;50.014;8.352;2023-02-12T05:58:43;66.07;;;23.07;;
28760;SDS011;15917;50.014;8.352;2023-02-12T06:01:14;65.40;;;26.23;;
28760;SDS011;15917;50.014;8.352;2023-02-12T06:04:01;69.60;;;26.13;;
28760;SDS011;15917;50.014;8.352;2023-02-12T06:06:29;67.55;;;27.35;;
28760;SDS011;15917;50.014;8.352;2023-02-12T06:08:56;59.85;;;24.42;;
28760;SDS011;15917;50.014;8.352;2023-02-12T06:11:22;57.83;;;25.02;;
28760;SDS011;15917;50.014;8.352;2023-02-12T06:13:48;62.78;;;25.50;;
28760;SDS011;15917;50.014;8.352;2023-02-12T06:18:46;68.95;;;24.48;;
28760;SDS011;15917;50.014;8.352;2023-02-12T06:21:13;61.35;;;25.38;;
28760;SDS011;15917;50.014;8.352;2023-02-12T06:23:39;67.50;;;26.42;;
28760;SDS011;15917;50.014;8.352;2023-02-12T06:26:05;66.68;;;26.05;;
28760;SDS011;15917;50.014;8.352;2023-02-12T06:28:30;67.32;;;25.77;;
28760;SDS011;15917;50.014;8.352;2023-02-12T06:30:56;60.10;;;25.63;;
28760;SDS011;15917;50.014;8.352;2023-02-12T06:33:22;64.90;;;26.95;;
28760;SDS011;15917;50.014;8.352;2023-02-12T06:35:47;61.88;;;27.08;;
28760;SDS011;15917;50.014;8.352;2023-02-12T06:38:13;61.83;;;27.90;;
28760;SDS011;15917;50.014;8.352;2023-02-12T06:40:39;64.95;;;27.10;;
28760;SDS011;15917;50.014;8.352;2023-02-12T06:43:05;60.33;;;27.10;;
28760;SDS011;15917;50.014;8.352;2023-02-12T06:45:31;65.97;;;27.40;;
28760;SDS011;15917;50.014;8.352;2023-02-12T06:47:57;72.55;;;28.25;;
28760;SDS011;15917;50.014;8.352;2023-02-12T06:50:23;63.83;;;27.63;;
28760;SDS011;15917;50.014;8.352;2023-02-12T06:52:48;71.63;;;29.52;;
28760;SDS011;15917;50.014;8.352;2023-02-12T06:55:14;70.20;;;30.20;;
28760;SDS011;15917;50.014;8.352;2023-02-12T06:57:40;77.60;;;30.38;;
28760;SDS011;15917;50.014;8.352;2023-02-12T07:00:06;70.45;;;29.15;;
28760;SDS011;15917;50.014;8.352;2023-02-12T07:02:32;67.55;;;27.60;;
28760;SDS011;15917;50.014;8.352;2023-02-12T07:04:58;69.40;;;26.35;;
28760;SDS011;15917;50.014;8.352;2023-02-12T07:07:23;70.88;;;28.95;;
28760;SDS011;15917;50.014;8.352;2023-02-12T07:09:49;65.05;;;27.88;;
28760;SDS011;15917;50.014;8.352;2023-02-12T07:12:15;62.33;;;28.45;;
28760;SDS011;15917;50.014;8.352;2023-02-12T07:14:40;65.82;;;26.92;;
28760;SDS011;15917;50.014;8.352;2023-02-12T07:17:06;71.18;;;29.45;;
28760;SDS011;15917;50.014;8.352;2023-02-12T07:19:33;70.73;;;31.47;;
28760;SDS011;15917;50.014;8.352;2023-02-12T07:21:59;66.03;;;28.33;;
28760;SDS011;15917;50.014;8.352;2023-02-12T07:24:24;71.30;;;29.88;;
28760;SDS011;15917;50.014;8.352;2023-02-12T07:26:50;78.75;;;30.95;;
28760;SDS011;15917;50.014;8.352;2023-02-12T07:29:16;77.93;;;33.22;;
28760;SDS011;15917;50.014;8.352;2023-02-12T07:31:41;71.60;;;31.40;;
28760;SDS011;15917;50.014;8.352;2023-02-12T07:34:08;74.82;;;30.92;;
28760;SDS011;15917;50.014;8.352;2023-02-12T07:36:34;86.28;;;32.45;;
28760;SDS011;15917;50.014;8.352;2023-02-12T07:39:00;73.15;;;31.08;;
28760;SDS011;15917;50.014;8.352;2023-02-12T07:43:54;73.05;;;28.88;;
28760;SDS011;15917;50.014;8.352;2023-02-12T07:46:22;63.42;;;29.13;;
28760;SDS011;15917;50.014;8.352;2023-02-12T07:48:53;66.68;;;28.00;;
28760;SDS011;15917;50.014;8.352;2023-02-12T07:51:20;68.15;;;27.67;;
28760;SDS011;15917;50.014;8.352;2023-02-12T07:53:47;73.57;;;29.65;;
28760;SDS011;15917;50.014;8.352;2023-02-12T07:56:14;73.82;;;28.02;;
28760;SDS011;15917;50.014;8.352;2023-02-12T07:58:42;72.20;;;31.10;;
28760;SDS011;15917;50.014;8.352;2023-02-12T08:03:49;79.20;;;31.55;;
28760;SDS011;15917;50.014;8.352;2023-02-12T08:06:24;76.50;;;32.40;;
28760;SDS011;15917;50.014;8.352;2023-02-12T08:08:52;82.60;;;34.28;;
28760;SDS011;15917;50.014;8.352;2023-02-12T08:11:22;91.05;;;33.75;;
28760;SDS011;15917;50.014;8.352;2023-02-12T08:13:48;93.32;;;34.35;;
28760;SDS011;15917;50.014;8.352;2023-02-12T08:16:16;101.32;;;33.78;;
28760;SDS011;15917;50.014;8.352;2023-02-12T08:18:44;103.45;;;36.63;;
28760;SDS011;15917;50.014;8.352;2023-02-12T08:21:11;109.97;;;37.00;;
28760;SDS011;15917;50.014;8.352;2023-02-12T08:23:42;97.82;;;35.53;;
28760;SDS011;15917;50.014;8.352;2023-02-12T08:29:01;102.00;;;38.30;;
28760;SDS011;15917;50.014;8.352;2023-02-12T08:31:33;99.28;;;36.33;;
28760;SDS011;15917;50.014;8.352;2023-02-12T08:34:00;61.33;;;22.80;;
28760;SDS011;15917;50.014;8.352;2023-02-12T08:36:27;87.63;;;30.20;;
28760;SDS011;15917;50.014;8.352;2023-02-12T08:38:58;101.43;;;35.05;;
28760;SDS011;15917;50.014;8.352;2023-02-12T08:41:25;87.18;;;33.63;;
28760;SDS011;15917;50.014;8.352;2023-02-12T08:43:52;84.50;;;32.67;;
28760;SDS011;15917;50.014;8.352;2023-02-12T08:46:20;100.13;;;34.60;;
28760;SDS011;15917;50.014;8.352;2023-02-12T08:48:47;91.88;;;35.10;;
28760;SDS011;15917;50.014;8.352;2023-02-12T08:51:17;110.53;;;37.35;;
28760;SDS011;15917;50.014;8.352;2023-02-12T08:53:44;102.20;;;35.80;;
28760;SDS011;15917;50.014;8.352;2023-02-12T08:56:11;113.95;;;39.30;;
28760;SDS011;15917;50.014;8.352;2023-02-12T08:58:40;105.00;;;37.83;;
28760;SDS011;15917;50.014;8.352;2023-02-12T09:01:11;115.88;;;38.53;;
28760;SDS011;15917;50.014;8.352;2023-02-12T09:03:38;124.03;;;41.22;;
28760;SDS011;15917;50.014;8.352;2023-02-12T09:06:04;111.68;;;38.83;;
28760;SDS011;15917;50.014;8.352;2023-02-12T09:08:31;115.77;;;37.73;;
28760;SDS011;15917;50.014;8.352;2023-02-12T09:10:57;127.90;;;41.15;;
28760;SDS011;15917;50.014;8.352;2023-02-12T09:13:23;129.07;;;41.13;;
28760;SDS011;15917;50.014;8.352;2023-02-12T09:15:48;121.88;;;39.88;;
28760;SDS011;15917;50.014;8.352;2023-02-12T09:18:14;121.07;;;40.20;;
28760;SDS011;15917;50.014;8.352;2023-02-12T09:20:41;111.03;;;40.22;;
28760;SDS011;15917;50.014;8.352;2023-02-12T09:25:40;118.05;;;36.72;;
28760;SDS011;15917;50.014;8.352;2023-02-12T09:28:07;108.32;;;37.47;;
28760;SDS011;15917;50.014;8.352;2023-02-12T09:30:34;94.82;;;34.10;;
28760;SDS011;15917;50.014;8.352;2023-02-12T09:33:01;89.75;;;30.48;;
28760;SDS011;15917;50.014;8.352;2023-02-12T09:35:27;110.50;;;36.75;;
28760;SDS011;15917;50.014;8.352;2023-02-12T09:37:52;91.68;;;33.95;;
28760;SDS011;15917;50.014;8.352;2023-02-12T09:40:24;94.00;;;35.70;;
28760;SDS011;15917;50.014;8.352;2023-02-12T09:43:10;97.82;;;34.75;;
28760;SDS011;15917;50.014;8.352;2023-02-12T09:45:43;89.90;;;33.08;;
28760;SDS011;15917;50.014;8.352;2023-02-12T09:51:14;100.18;;;38.88;;
28760;SDS011;15917;50.014;8.352;2023-02-12T09:53:42;104.20;;;36.28;;
28760;SDS011;15917;50.014;8.352;2023-02-12T09:56:11;104.28;;;38.30;;
28760;SDS011;15917;50.014;8.352;2023-02-12T09:58:43;98.95;;;35.80;;
28760;SDS011;15917;50.014;8.352;2023-02-12T10:01:16;110.80;;;39.38;;
28760;SDS011;15917;50.014;8.352;2023-02-12T10:06:12;106.75;;;40.05;;
28760;SDS011;15917;50.014;8.352;2023-02-12T10:08:46;109.78;;;40.45;;
28760;SDS011;15917;50.014;8.352;2023-02-12T10:12:09;102.97;;;39.13;;
28760;SDS011;15917;50.014;8.352;2023-02-12T10:17:16;114.50;;;43.00;;
28760;SDS011;15917;50.014;8.352;2023-02-12T10:25:50;128.73;;;46.75;;
28760;SDS011;15917;50.014;8.352;2023-02-12T10:28:53;124.32;;;47.47;;
28760;SDS011;15917;50.014;8.352;2023-02-12T10:33:45;122.18;;;46.53;;
28760;SDS011;15917;50.014;8.352;2023-02-12T10:36:15;118.63;;;42.95;;
28760;SDS011;15917;50.014;8.352;2023-02-12T10:39:11;130.05;;;46.30;;
28760;SDS011;15917;50.014;8.352;2023-02-12T10:41:45;115.88;;;46.67;;
28760;SDS011;15917;50.014;8.352;2023-02-12T10:44:15;113.75;;;44.35;;
28760;SDS011;15917;50.014;8.352;2023-02-12T10:46:41;117.00;;;44.95;;
28760;SDS011;15917;50.014;8.352;2023-02-12T10:49:07;121.10;;;44.60;;
28760;SDS011;15917;50.014;8.352;2023-02-12T10:57:13;129.88;;;47.97;;
28760;SDS011;15917;50.014;8.352;2023-02-12T10:59:42;111.32;;;44.35;;
28760;SDS011;15917;50.014;8.352;2023-02-12T11:02:28;117.73;;;42.97;;
28760;SDS011;15917;50.014;8.352;2023-02-12T11:04:56;120.43;;;44.42;;
28760;SDS011;15917;50.014;8.352;2023-02-12T11:07:23;118.85;;;43.83;;
28760;SDS011;15917;50.014;8.352;2023-02-12T11:09:51;107.70;;;42.70;;
28760;SDS011;15917;50.014;8.352;2023-02-12T11:14:50;103.18;;;41.05;;
28760;SDS011;15917;50.014;8.352;2023-02-12T11:17:25;119.95;;;42.70;;
28760;SDS011;15917;50.014;8.352;2023-02-12T11:20:03;119.38;;;45.80;;
28760;SDS011;15917;50.014;8.352;2023-02-12T11:22:29;116.60;;;44.25;;
28760;SDS011;15917;50.014;8.352;2023-02-12T11:24:59;110.00;;;43.92;;
28760;SDS011;15917;50.014;8.352;2023-02-12T11:27:28;111.30;;;43.30;;
28760;SDS011;15917;50.014;8.352;2023-02-12T11:32:43;96.70;;;39.78;;
28760;SDS011;15917;50.014;8.352;2023-02-12T11:35:17;95.35;;;35.92;;
28760;SDS011;15917;50.014;8.352;2023-02-12T11:37:50;92.00;;;35.45;;
28760;SDS011;15917;50.014;8.352;2023-02-12T11:40:45;101.53;;;38.95;;
28760;SDS011;15917;50.014;8.352;2023-02-12T11:43:13;105.05;;;40.90;;
28760;SDS011;15917;50.014;8.352;2023-02-12T11:45:46;102.13;;;37.22;;
28760;SDS011;15917;50.014;8.352;2023-02-12T11:48:18;94.80;;;37.80;;
28760;SDS011;15917;50.014;8.352;2023-02-12T11:50:51;106.47;;;43.25;;
28760;SDS011;15917;50.014;8.352;2023-02-12T11:53:23;95.03;;;38.50;;
28760;SDS011;15917;50.014;8.352;2023-02-12T11:55:54;92.30;;;37.33;;
28760;SDS011;15917;50.014;8.352;2023-02-12T11:58:23;96.70;;;40.50;;
28760;SDS011;15917;50.014;8.352;2023-02-12T12:00:55;99.25;;;40.30;;
28760;SDS011;15917;50.014;8.352;2023-02-12T12:03:35;98.97;;;39.53;;
28760;SDS011;15917;50.014;8.352;2023-02-12T12:06:15;114.32;;;46.90;;
28760;SDS011;15917;50.014;8.352;2023-02-12T12:14:58;78.55;;;35.22;;
28760;SDS011;15917;50.014;8.352;2023-02-12T12:20:38;97.35;;;39.20;;
28760;SDS011;15917;50.014;8.352;2023-02-12T12:23:24;115.63;;;45.33;;
28760;SDS011;15917;50.014;8.352;2023-02-12T12:26:05;105.97;;;42.10;;
28760;SDS011;15917;50.014;8.352;2023-02-12T12:28:51;101.13;;;43.95;;
28760;SDS011;15917;50.014;8.352;2023-02-12T12:31:43;89.90;;;39.47;;
28760;SDS011;15917;50.014;8.352;2023-02-12T12:34:15;105.13;;;46.72;;
28760;SDS011;15917;50.014;8.352;2023-02-12T12:44:44;83.45;;;34.03;;
28760;SDS011;15917;50.014;8.352;2023-02-12T12:52:43;70.68;;;31.63;;
28760;SDS011;15917;50.014;8.352;2023-02-12T12:55:32;72.60;;;31.33;;
28760;SDS011;15917;50.014;8.352;2023-02-12T13:09:35;103.75;;;46.95;;
28760;SDS011;15917;50.014;8.352;2023-02-12T13:14:35;84.13;;;35.70;;
28760;SDS011;15917;50.014;8.352;2023-02-12T13:17:13;78.03;;;31.25;;
28760;SDS011;15917;50.014;8.352;2023-02-12T13:22:43;64.78;;;27.35;;
28760;SDS011;15917;50.014;8.352;2023-02-12T13:25:45;76.28;;;32.35;;
28760;SDS011;15917;50.014;8.352;2023-02-12T13:28:34;64.50;;;27.40;;
28760;SDS011;15917;50.014;8.352;2023-02-12T13:31:09;44.30;;;18.70;;
28760;SDS011;15917;50.014;8.352;2023-02-12T13:33:40;59.63;;;25.80;;
28760;SDS011;15917;50.014;8.352;2023-02-12T13:36:13;56.40;;;23.23;;
28760;SDS011;15917;50.014;8.352;2023-02-12T13:38:41;57.55;;;25.33;;
28760;SDS011;15917;50.014;8.352;2023-02-12T13:41:16;60.22;;;24.75;;
28760;SDS011;15917;50.014;8.352;2023-02-12T13:43:46;46.63;;;22.10;;
28760;SDS011;15917;50.014;8.352;2023-02-12T13:55:00;44.22;;;20.65;;
28760;SDS011;15917;50.014;8.352;2023-02-12T13:57:32;54.30;;;23.55;;
28760;SDS011;15917;50.014;8.352;2023-02-12T13:59:57;55.45;;;23.45;;
28760;SDS011;15917;50.014;8.352;2023-02-12T14:05:02;48.35;;;21.98;;
28760;SDS011;15917;50.014;8.352;2023-02-12T14:07:40;55.42;;;22.30;;
28760;SDS011;15917;50.014;8.352;2023-02-12T14:10:21;52.42;;;22.30;;
28760;SDS011;15917;50.014;8.352;2023-02-12T14:12:54;64.07;;;24.35;;
28760;SDS011;15917;50.014;8.352;2023-02-12T14:15:30;55.70;;;22.77;;
28760;SDS011;15917;50.014;8.352;2023-02-12T14:23:36;50.42;;;21.60;;
28760;SDS011;15917;50.014;8.352;2023-02-12T14:26:19;53.63;;;23.02;;
28760;SDS011;15917;50.014;8.352;2023-02-12T14:33:48;51.28;;;23.83;;
28760;SDS011;15917;50.014;8.352;2023-02-12T14:36:17;36.35;;;16.08;;
28760;SDS011;15917;50.014;8.352;2023-02-12T14:38:57;30.55;;;14.45;;
28760;SDS011;15917;50.014;8.352;2023-02-12T14:49:22;37.28;;;17.90;;
28760;SDS011;15917;50.014;8.352;2023-02-12T14:54:40;35.60;;;15.27;;
28760;SDS011;15917;50.014;8.352;2023-02-12T15:00:02;30.75;;;16.77;;
28760;SDS011;15917;50.014;8.352;2023-02-12T15:02:41;35.72;;;14.52;;
28760;SDS011;15917;50.014;8.352;2023-02-12T15:08:12;25.58;;;12.90;;
28760;SDS011;15917;50.014;8.352;2023-02-12T15:13:36;31.60;;;15.82;;
28760;SDS011;15917;50.014;8.352;2023-02-12T15:16:30;32.88;;;16.52;;
28760;SDS011;15917;50.014;8.352;2023-02-12T15:22:17;33.50;;;15.35;;
28760;SDS011;15917;50.014;8.352;2023-02-12T15:25:12;37.25;;;18.17;;
28760;SDS011;15917;50.014;8.352;2023-02-12T15:27:40;28.40;;;15.10;;
28760;SDS011;15917;50.014;8.352;2023-02-12T15:30:13;31.25;;;15.02;;
28760;SDS011;15917;50.014;8.352;2023-02-12T15:32:43;29.40;;;13.00;;
28760;SDS011;15917;50.014;8.352;2023-02-12T15:37:51;27.58;;;12.65;;
28760;SDS011;15917;50.014;8.352;2023-02-12T15:40:18;33.45;;;14.02;;
28760;SDS011;15917;50.014;8.352;2023-02-12T15:42:54;27.30;;;14.88;;
28760;SDS011;15917;50.014;8.352;2023-02-12T15:45:26;33.45;;;17.30;;
28760;SDS011;15917;50.014;8.352;2023-02-12T15:48:17;44.65;;;21.33;;
28760;SDS011;15917;50.014;8.352;2023-02-12T15:50:53;39.55;;;18.35;;
28760;SDS011;15917;50.014;8.352;2023-02-12T15:53:25;56.97;;;27.90;;
28760;SDS011;15917;50.014;8.352;2023-02-12T15:55:55;53.08;;;22.70;;
28760;SDS011;15917;50.014;8.352;2023-02-12T15:58:23;42.38;;;19.33;;
28760;SDS011;15917;50.014;8.352;2023-02-12T16:00:49;36.83;;;16.73;;
28760;SDS011;15917;50.014;8.352;2023-02-12T16:05:51;28.08;;;14.75;;
28760;SDS011;15917;50.014;8.352;2023-02-12T16:08:20;31.90;;;14.77;;
28760;SDS011;15917;50.014;8.352;2023-02-12T16:10:49;27.35;;;13.85;;
28760;SDS011;15917;50.014;8.352;2023-02-12T16:13:18;28.38;;;14.65;;
28760;SDS011;15917;50.014;8.352;2023-02-12T16:16:12;27.17;;;13.02;;
28760;SDS011;15917;50.014;8.352;2023-02-12T16:18:43;29.25;;;13.18;;
28760;SDS011;15917;50.014;8.352;2023-02-12T16:21:11;30.92;;;13.55;;
28760;SDS011;15917;50.014;8.352;2023-02-12T16:23:46;32.50;;;13.27;;
28760;SDS011;15917;50.014;8.352;2023-02-12T16:26:24;33.50;;;14.30;;
28760;SDS011;15917;50.014;8.352;2023-02-12T16:28:51;27.33;;;13.20;;
28760;SDS011;15917;50.014;8.352;2023-02-12T16:33:49;28.27;;;13.35;;
28760;SDS011;15917;50.014;8.352;2023-02-12T16:38:49;28.05;;;13.77;;
28760;SDS011;15917;50.014;8.352;2023-02-12T16:41:30;31.08;;;14.55;;
28760;SDS011;15917;50.014;8.352;2023-02-12T16:46:29;32.42;;;14.45;;
28760;SDS011;15917;50.014;8.352;2023-02-12T16:48:57;42.42;;;22.52;;
28760;SDS011;15917;50.014;8.352;2023-02-12T16:53:53;29.90;;;14.68;;
28760;SDS011;15917;50.014;8.352;2023-02-12T16:56:22;30.15;;;14.90;;
28760;SDS011;15917;50.014;8.352;2023-02-12T16:58:53;30.20;;;15.93;;
28760;SDS011;15917;50.014;8.352;2023-02-12T17:03:56;36.05;;;17.08;;
28760;SDS011;15917;50.014;8.352;2023-02-12T17:06:24;34.75;;;15.13;;
28760;SDS011;15917;50.014;8.352;2023-02-12T17:08:54;33.75;;;15.98;;
28760;SDS011;15917;50.014;8.352;2023-02-12T17:11:21;34.33;;;14.65;;
28760;SDS011;15917;50.014;8.352;2023-02-12T17:13:48;36.08;;;15.15;;
28760;SDS011;15917;50.014;8.352;2023-02-12T17:16:16;37.75;;;16.00;;
28760;SDS011;15917;50.014;8.352;2023-02-12T17:18:42;36.55;;;14.98;;
28760;SDS011;15917;50.014;8.352;2023-02-12T17:21:13;37.53;;;15.25;;
28760;SDS011;15917;50.014;8.352;2023-02-12T17:23:48;45.85;;;16.80;;
28760;SDS011;15917;50.014;8.352;2023-02-12T17:26:14;40.17;;;15.73;;
28760;SDS011;15917;50.014;8.352;2023-02-12T17:28:40;43.63;;;16.60;;
28760;SDS011;15917;50.014;8.352;2023-02-12T17:31:06;45.90;;;17.58;;
28760;SDS011;15917;50.014;8.352;2023-02-12T17:33:33;42.28;;;17.52;;
28760;SDS011;15917;50.014;8.352;2023-02-12T17:35:58;40.90;;;16.52;;
28760;SDS011;15917;50.014;8.352;2023-02-12T17:38:24;42.80;;;18.20;;
28760;SDS011;15917;50.014;8.352;2023-02-12T17:40:49;49.25;;;18.15;;
28760;SDS011;15917;50.014;8.352;2023-02-12T17:43:15;40.83;;;17.15;;
28760;SDS011;15917;50.014;8.352;2023-02-12T17:45:41;48.40;;;17.17;;
28760;SDS011;15917;50.014;8.352;2023-02-12T17:48:08;43.60;;;17.67;;
28760;SDS011;15917;50.014;8.352;2023-02-12T17:50:38;45.20;;;18.17;;
28760;SDS011;15917;50.014;8.352;2023-02-12T17:53:04;45.60;;;17.25;;
28760;SDS011;15917;50.014;8.352;2023-02-12T17:55:30;39.72;;;16.35;;
28760;SDS011;15917;50.014;8.352;2023-02-12T17:57:56;41.03;;;16.17;;
28760;SDS011;15917;50.014;8.352;2023-02-12T18:00:22;38.80;;;15.85;;
28760;SDS011;15917;50.014;8.352;2023-02-12T18:02:48;40.70;;;15.98;;